createdAt,value
2018-07-24T00:00:03.901Z,9.30
2018-07-24T00:02:32.229Z,7.30
2018-07-24T00:05:00.485Z,7.20
2018-07-24T00:07:28.768Z,8.27
2018-07-24T00:09:57.021Z,7.23
2018-07-24T00:12:25.293Z,7.57
2018-07-24T00:14:53.531Z,7.63
2018-07-24T00:17:21.902Z,6.80
2018-07-24T00:19:50.124Z,8.13
2018-07-24T00:22:18.926Z,6.77
2018-07-24T00:24:47.138Z,8.70
2018-07-24T00:27:15.125Z,7.83
2018-07-24T00:29:43.346Z,8.50
2018-07-24T00:32:11.923Z,9.37
2018-07-24T00:34:40.156Z,7.10
2018-07-24T00:37:08.438Z,7.10
2018-07-24T00:39:36.959Z,6.43
2018-07-24T00:42:05.215Z,7.27
2018-07-24T00:44:33.467Z,7.87
2018-07-24T00:47:01.686Z,8.27
2018-07-24T00:49:29.898Z,8.57
2018-07-24T00:51:58.129Z,7.77
2018-07-24T00:54:26.377Z,9.77
2018-07-24T00:56:54.597Z,8.77
2018-07-24T00:59:23.794Z,8.23
2018-07-24T01:01:52.014Z,7.83
2018-07-24T01:04:20.337Z,8.27
2018-07-24T01:06:48.603Z,7.93
2018-07-24T01:09:16.813Z,10.73
2018-07-24T01:11:45.151Z,9.60
2018-07-24T01:14:13.358Z,8.17
2018-07-24T01:16:41.605Z,8.73
2018-07-24T01:19:09.879Z,7.17
2018-07-24T01:21:38.373Z,10.50
2018-07-24T01:24:06.593Z,8.37
2018-07-24T01:26:34.818Z,7.13
2018-07-24T01:29:04.122Z,8.93
2018-07-24T01:31:32.387Z,7.20
2018-07-24T01:34:00.596Z,7.17
2018-07-24T01:36:28.861Z,8.07
2018-07-24T01:38:57.297Z,7.97
2018-07-24T01:41:25.526Z,7.10
2018-07-24T01:43:53.782Z,8.07
2018-07-24T01:46:22.328Z,8.57
2018-07-24T01:48:50.571Z,8.20
2018-07-24T01:51:18.826Z,10.57
2018-07-24T01:53:47.414Z,7.73
2018-07-24T01:56:15.682Z,6.90
2018-07-24T01:58:44.006Z,9.23
2018-07-24T02:01:12.297Z,7.57
2018-07-24T02:03:40.510Z,8.00
2018-07-24T02:06:08.719Z,8.60
2018-07-24T02:08:37.848Z,7.80
2018-07-24T02:11:06.397Z,8.23
2018-07-24T02:13:34.672Z,8.97
2018-07-24T02:16:03.938Z,10.30
2018-07-24T02:18:32.669Z,9.70
2018-07-24T02:21:00.881Z,8.63
2018-07-24T02:23:29.130Z,9.00
2018-07-24T02:25:57.400Z,9.60
2018-07-24T02:28:25.676Z,8.07
2018-07-24T02:30:53.915Z,7.90
2018-07-24T02:33:22.171Z,6.80
2018-07-24T02:35:50.851Z,6.53
2018-07-24T02:38:19.152Z,7.87
2018-07-24T02:40:47.412Z,10.13
2018-07-24T02:43:15.854Z,7.67
2018-07-24T02:45:44.331Z,9.03
2018-07-24T02:48:12.599Z,7.47
2018-07-24T02:50:41.602Z,8.57
2018-07-24T02:53:09.804Z,7.77
2018-07-24T02:55:38.021Z,8.03
2018-07-24T02:58:06.613Z,7.77
2018-07-24T03:00:34.843Z,8.93
2018-07-24T03:03:03.100Z,7.23
2018-07-24T03:05:31.634Z,6.63
2018-07-24T03:08:00.041Z,9.90
2018-07-24T03:10:28.281Z,9.07
2018-07-24T03:12:56.506Z,8.13
2018-07-24T03:15:24.762Z,8.17
2018-07-24T03:17:52.975Z,9.47
2018-07-24T03:20:21.228Z,8.17
2018-07-24T03:22:49.592Z,8.90
2018-07-24T03:25:18.012Z,7.57
2018-07-24T03:27:46.415Z,7.73
2018-07-24T03:30:14.664Z,6.97
2018-07-24T03:32:42.906Z,8.00
2018-07-24T03:35:11.882Z,6.90
2018-07-24T03:37:41.067Z,7.00
2018-07-24T03:40:09.379Z,7.17
2018-07-24T03:42:37.917Z,8.40
2018-07-24T03:45:07.265Z,8.17
2018-07-24T03:47:36.426Z,6.97
2018-07-24T03:50:04.655Z,6.20
2018-07-24T03:52:32.890Z,7.17
2018-07-24T03:55:01.146Z,9.00
2018-07-24T03:57:29.470Z,6.40
2018-07-24T03:59:57.853Z,7.63
2018-07-24T04:02:26.738Z,6.17
2018-07-24T04:04:54.993Z,6.77
2018-07-24T04:07:23.580Z,6.80
2018-07-24T04:09:51.871Z,7.10
2018-07-24T04:12:20.615Z,7.50
2018-07-24T04:14:48.824Z,6.20
2018-07-24T04:17:17.082Z,7.57
2018-07-24T04:19:45.282Z,7.70
2018-07-24T04:22:13.494Z,6.57
2018-07-24T04:24:41.736Z,6.50
2018-07-24T04:27:10.030Z,5.93
2018-07-24T04:29:38.238Z,7.27
2018-07-24T04:32:06.851Z,6.77
2018-07-24T04:34:35.096Z,6.73
2018-07-24T04:37:03.906Z,6.10
2018-07-24T04:39:32.363Z,6.20
2018-07-24T04:42:00.966Z,7.07
2018-07-24T04:44:29.238Z,7.07
2018-07-24T04:46:57.462Z,6.33
2018-07-24T04:49:25.701Z,6.20
2018-07-24T04:51:54.744Z,6.13
2018-07-24T04:54:22.945Z,7.20
2018-07-24T04:56:52.174Z,8.00
2018-07-24T04:59:21.378Z,7.07
2018-07-24T05:01:49.614Z,7.63
2018-07-24T05:04:17.863Z,5.60
2018-07-24T05:06:46.189Z,6.93
2018-07-24T05:09:14.464Z,7.83
2018-07-24T05:11:44.026Z,6.87
2018-07-24T05:14:12.497Z,8.47
2018-07-24T05:16:41.466Z,6.63
2018-07-24T05:19:09.783Z,6.83
2018-07-24T05:21:38.888Z,6.40
2018-07-24T05:24:07.591Z,7.10
2018-07-24T05:26:36.578Z,8.40
2018-07-24T05:29:04.955Z,5.83
2018-07-24T05:31:33.183Z,8.43
2018-07-24T05:34:01.398Z,7.03
2018-07-24T05:36:29.658Z,8.13
2018-07-24T05:38:57.871Z,6.70
2018-07-24T05:41:26.103Z,6.57
2018-07-24T05:43:54.309Z,5.87
2018-07-24T05:46:22.581Z,5.80
2018-07-24T05:48:50.851Z,6.17
2018-07-24T05:51:19.166Z,6.57
2018-07-24T05:53:47.381Z,6.43
2018-07-24T05:56:16.311Z,7.97
2018-07-24T05:58:44.626Z,6.93
2018-07-24T06:01:13.577Z,5.90
2018-07-24T06:03:42.084Z,7.23
2018-07-24T06:06:10.301Z,6.17
2018-07-24T06:08:38.492Z,6.57
2018-07-24T06:11:07.396Z,6.73
2018-07-24T06:13:35.642Z,8.97
2018-07-24T06:16:03.931Z,7.57
2018-07-24T06:18:32.265Z,5.87
2018-07-24T06:21:00.487Z,14.30
2018-07-24T06:23:28.858Z,7.80
2018-07-24T06:25:57.041Z,7.00
2018-07-24T06:28:25.323Z,6.40
2018-07-24T06:30:53.577Z,6.40
2018-07-24T06:33:21.773Z,5.93
2018-07-24T06:35:50.033Z,5.40
2018-07-24T06:38:18.254Z,7.03
2018-07-24T06:40:46.528Z,5.97
2018-07-24T06:43:14.735Z,6.60
2018-07-24T06:45:42.975Z,8.93
2018-07-24T06:48:11.256Z,6.97
2018-07-24T06:50:39.530Z,7.83
2018-07-24T06:53:07.785Z,7.10
2018-07-24T06:55:36.199Z,8.03
2018-07-24T06:58:04.471Z,6.00
2018-07-24T07:00:32.666Z,6.40
2018-07-24T07:03:01.870Z,10.10
2018-07-24T07:05:30.091Z,6.20
2018-07-24T07:07:58.262Z,5.83
2018-07-24T07:10:26.511Z,6.83
2018-07-24T07:12:55.092Z,8.10
2018-07-24T07:15:23.502Z,5.90
2018-07-24T07:17:51.749Z,10.00
2018-07-24T07:20:20.012Z,7.83
2018-07-24T07:22:48.247Z,5.17
2018-07-24T07:25:16.506Z,5.03
2018-07-24T07:27:44.751Z,6.27
2018-07-24T07:30:12.956Z,5.03
2018-07-24T07:32:41.352Z,4.63
2018-07-24T07:35:09.479Z,6.03
2018-07-24T07:37:38.530Z,5.23
2018-07-24T07:40:06.702Z,5.47
2018-07-24T07:42:35.219Z,5.17
2018-07-24T07:45:03.592Z,5.93
2018-07-24T07:47:31.936Z,7.20
2018-07-24T07:50:00.733Z,5.97
2018-07-24T07:52:29.990Z,6.13
2018-07-24T07:54:58.147Z,5.80
2018-07-24T07:57:26.361Z,4.53
2018-07-24T07:59:54.598Z,5.93
2018-07-24T08:02:22.969Z,4.37
2018-07-24T08:04:51.295Z,4.67
2018-07-24T08:07:19.485Z,5.50
2018-07-24T08:09:48.019Z,4.90
2018-07-24T08:12:16.216Z,5.47
2018-07-24T08:14:44.426Z,4.63
2018-07-24T08:17:12.644Z,4.95
2018-07-24T08:19:41.275Z,2.85
2018-07-24T08:22:09.673Z,3.25
2018-07-24T08:24:37.893Z,3.62
2018-07-24T08:27:06.311Z,3.35
2018-07-24T08:29:34.795Z,3.30
2018-07-24T08:32:03.028Z,2.58
2018-07-24T08:34:31.289Z,24.12
2018-07-24T08:36:59.919Z,771.83
2018-07-24T08:39:28.369Z,1414.35
2018-07-24T08:41:56.752Z,1999.90
2018-07-24T08:44:25.242Z,1999.90
2018-07-24T08:46:53.603Z,1999.90
2018-07-24T08:49:21.860Z,1999.90
2018-07-24T08:51:50.270Z,1999.90
2018-07-24T08:54:18.888Z,1999.90
2018-07-24T08:56:46.970Z,1999.90
2018-07-24T08:59:15.304Z,1999.90
2018-07-24T09:01:43.645Z,1999.90
2018-07-24T09:04:12.557Z,1999.90
2018-07-24T09:06:40.899Z,1999.90
2018-07-24T09:09:10.528Z,1999.90
2018-07-24T09:11:38.868Z,1999.90
2018-07-24T09:14:07.110Z,1999.90
2018-07-24T09:16:35.344Z,1999.90
2018-07-24T09:19:03.584Z,1999.90
2018-07-24T09:21:32.656Z,1999.90
2018-07-24T09:24:00.935Z,1999.90
2018-07-24T09:26:29.209Z,1999.90
2018-07-24T09:28:57.547Z,1999.90
2018-07-24T09:31:25.806Z,1999.90
2018-07-24T09:33:54.222Z,1999.90
2018-07-24T09:36:22.626Z,1999.90
2018-07-24T09:38:50.894Z,1999.90
2018-07-24T09:41:19.118Z,1999.90
2018-07-24T09:43:47.607Z,1999.90
2018-07-24T09:46:16.032Z,1999.90
2018-07-24T09:48:44.305Z,1796.15
2018-07-24T09:51:12.559Z,1321.35
2018-07-24T09:53:41.787Z,1321.13
2018-07-24T09:56:10.051Z,1265.55
2018-07-24T09:58:38.361Z,1538.70
2018-07-24T10:01:12.185Z,1556.03
2018-07-24T10:03:40.199Z,1433.60
2018-07-24T10:06:08.487Z,1277.78
2018-07-24T10:08:36.735Z,1230.22
2018-07-24T10:11:05.077Z,1268.68
2018-07-24T10:13:33.338Z,1319.47
2018-07-24T10:16:01.626Z,1318.30
2018-07-24T10:18:29.970Z,1235.47
2018-07-24T10:20:58.229Z,1247.88
2018-07-24T10:23:26.539Z,1240.43
2018-07-24T10:25:54.835Z,1209.25
2018-07-24T10:28:23.162Z,1187.13
2018-07-24T10:30:51.436Z,1169.45
2018-07-24T10:33:19.729Z,1151.40
2018-07-24T10:35:47.974Z,1154.53
2018-07-24T10:38:16.225Z,1161.45
2018-07-24T10:40:44.225Z,1161.18
2018-07-24T10:43:12.491Z,1141.60
2018-07-24T10:45:40.751Z,1145.03
2018-07-24T10:48:09.108Z,1156.05
2018-07-24T10:50:37.337Z,1154.35
2018-07-24T10:53:05.662Z,1144.73
2018-07-24T10:55:33.992Z,1159.20
2018-07-24T10:58:02.238Z,1143.15
2018-07-24T11:00:30.529Z,1131.80
2018-07-24T11:02:58.871Z,1153.15
2018-07-24T11:05:27.132Z,1142.30
2018-07-24T11:07:55.790Z,1152.55
2018-07-24T11:10:24.073Z,1165.78
2018-07-24T11:12:52.583Z,1163.42
2018-07-24T11:15:20.959Z,1143.28
2018-07-24T11:17:49.242Z,1138.20
2018-07-24T11:20:17.479Z,1163.78
2018-07-24T11:22:45.942Z,1165.93
2018-07-24T11:25:14.435Z,1177.70
2018-07-24T11:27:42.690Z,1154.47
2018-07-24T11:30:11.427Z,1154.55
2018-07-24T11:32:39.677Z,1155.33
2018-07-24T11:35:07.896Z,1184.65
2018-07-24T11:37:36.149Z,1157.10
2018-07-24T11:40:04.414Z,1146.93
2018-07-24T11:42:32.619Z,1167.95
2018-07-24T11:45:00.924Z,1209.25
2018-07-24T11:47:28.915Z,1200.80
2018-07-24T11:49:57.808Z,1215.83
2018-07-24T11:52:26.651Z,1238.22
2018-07-24T11:54:54.995Z,1224.45
2018-07-24T11:57:23.297Z,1249.70
2018-07-24T11:59:51.642Z,1232.83
2018-07-24T12:02:19.866Z,1239.38
2018-07-24T12:04:48.726Z,1274.72
2018-07-24T12:07:17.105Z,1251.38
2018-07-24T12:09:45.377Z,1277.85
2018-07-24T12:12:13.624Z,1293.35
2018-07-24T12:14:41.971Z,1310.42
2018-07-24T12:17:10.174Z,1333.10
2018-07-24T12:19:38.580Z,1387.58
2018-07-24T12:22:06.810Z,1372.63
2018-07-24T12:24:35.186Z,1334.25
2018-07-24T12:27:04.032Z,1343.08
2018-07-24T12:29:32.411Z,1358.20
2018-07-24T12:32:00.650Z,1384.30
2018-07-24T12:34:28.994Z,1337.53
2018-07-24T12:36:57.305Z,1319.60
2018-07-24T12:39:25.599Z,1367.68
2018-07-24T12:41:53.890Z,1327.73
2018-07-24T12:44:22.198Z,1351.55
2018-07-24T12:46:50.230Z,1378.05
2018-07-24T12:49:19.151Z,1350.48
2018-07-24T12:51:47.557Z,1376.78
2018-07-24T12:54:16.017Z,1356.30
2018-07-24T12:56:44.235Z,1346.03
2018-07-24T12:59:12.565Z,1333.47
2018-07-24T13:01:40.778Z,1380.70
2018-07-24T13:04:09.086Z,1357.93
2018-07-24T13:06:37.319Z,1349.83
2018-07-24T13:09:08.940Z,1350.98
2018-07-24T13:11:37.290Z,1282.35
2018-07-24T13:14:06.187Z,1339.43
2018-07-24T13:16:35.057Z,1284.60
2018-07-24T13:19:03.335Z,1315.97
2018-07-24T13:21:32.162Z,1329.53
2018-07-24T13:24:00.396Z,1329.00
2018-07-24T13:26:28.619Z,1309.53
2018-07-24T13:28:56.871Z,1417.75
2018-07-24T13:31:25.133Z,1355.30
2018-07-24T13:33:53.669Z,1347.63
2018-07-24T13:36:22.187Z,1333.08
2018-07-24T13:38:50.810Z,1346.75
2018-07-24T13:41:19.219Z,1362.83
2018-07-24T13:43:47.532Z,1370.15
2018-07-24T13:46:16.510Z,1370.55
2018-07-24T13:48:44.710Z,1320.18
2018-07-24T13:51:12.953Z,1301.05
2018-07-24T13:53:41.192Z,1353.78
2018-07-24T13:56:09.423Z,1336.90
2018-07-24T13:58:37.677Z,1398.58
2018-07-24T14:01:05.954Z,1391.33
2018-07-24T14:03:34.206Z,1393.88
2018-07-24T14:06:02.416Z,1300.42
2018-07-24T14:08:31.072Z,1362.95
2018-07-24T14:10:59.871Z,1328.90
2018-07-24T14:13:28.489Z,1322.33
2018-07-24T14:15:56.690Z,1289.53
2018-07-24T14:18:25.176Z,1292.78
2018-07-24T14:20:53.673Z,1272.53
2018-07-24T14:23:22.136Z,1263.33
2018-07-24T14:25:50.390Z,1357.65
2018-07-24T14:28:18.630Z,1301.73
2018-07-24T14:30:47.147Z,1381.83
2018-07-24T14:33:15.456Z,1426.78
2018-07-24T14:35:44.011Z,1443.40
2018-07-24T14:38:12.530Z,1499.10
2018-07-24T14:40:40.953Z,1547.95
2018-07-24T14:43:09.170Z,1539.90
2018-07-24T14:45:37.415Z,1636.80
2018-07-24T14:48:05.928Z,1615.20
2018-07-24T14:50:34.188Z,1723.93
2018-07-24T14:53:02.602Z,1674.05
2018-07-24T14:55:30.938Z,1677.63
2018-07-24T14:57:59.560Z,1643.53
2018-07-24T15:00:28.183Z,1620.53
2018-07-24T15:02:56.372Z,1596.05
2018-07-24T15:05:24.598Z,1589.78
2018-07-24T15:07:52.886Z,1555.23
2018-07-24T15:10:21.122Z,1537.50
2018-07-24T15:12:49.344Z,1487.98
2018-07-24T15:15:17.590Z,1525.00
2018-07-24T15:17:46.250Z,1561.20
2018-07-24T15:20:14.647Z,1534.33
2018-07-24T15:22:42.865Z,1581.38
2018-07-24T15:25:11.359Z,1567.70
2018-07-24T15:27:39.634Z,1608.88
2018-07-24T15:30:08.630Z,1654.80
2018-07-24T15:32:36.873Z,1694.13
2018-07-24T15:35:05.259Z,1717.15
2018-07-24T15:37:33.489Z,1703.00
2018-07-24T15:40:01.712Z,1642.33
2018-07-24T15:42:30.012Z,1656.43
2018-07-24T15:44:58.319Z,1639.60
2018-07-24T15:47:26.565Z,1661.03
2018-07-24T15:49:54.932Z,1579.70
2018-07-24T15:52:23.169Z,1617.85
2018-07-24T15:54:51.910Z,1639.08
2018-07-24T15:57:20.273Z,1625.70
2018-07-24T15:59:48.649Z,1621.00
2018-07-24T16:02:16.927Z,1672.97
2018-07-24T16:04:45.173Z,1684.45
2018-07-24T16:07:13.435Z,1588.95
2018-07-24T16:09:41.719Z,1563.33
2018-07-24T16:12:10.561Z,1413.70
2018-07-24T16:14:39.634Z,1385.55
2018-07-24T16:17:08.224Z,1444.20
2018-07-24T16:19:36.729Z,1360.80
2018-07-24T16:22:05.464Z,1325.47
2018-07-24T16:24:33.701Z,1309.67
2018-07-24T16:27:01.912Z,1295.38
2018-07-24T16:29:30.239Z,1349.58
2018-07-24T16:31:58.522Z,1385.10
2018-07-24T16:34:26.970Z,1440.13
2018-07-24T16:36:56.037Z,1455.88
2018-07-24T16:39:24.299Z,1366.13
2018-07-24T16:41:52.550Z,1352.50
2018-07-24T16:44:20.870Z,1426.03
2018-07-24T16:46:49.185Z,1378.13
2018-07-24T16:49:17.476Z,1411.08
2018-07-24T16:51:45.669Z,1398.17
2018-07-24T16:54:13.874Z,1346.78
2018-07-24T16:56:42.114Z,1423.63
2018-07-24T16:59:11.166Z,1367.65
2018-07-24T17:01:40.487Z,1359.40
2018-07-24T17:04:08.799Z,1369.13
2018-07-24T17:06:37.032Z,1369.48
2018-07-24T17:09:09.104Z,1378.78
2018-07-24T17:11:37.782Z,1379.68
2018-07-24T17:14:06.134Z,1401.48
2018-07-24T17:16:34.459Z,1376.53
2018-07-24T17:19:03.288Z,1393.90
2018-07-24T17:21:32.076Z,1373.73
2018-07-24T17:24:01.388Z,1356.13
2018-07-24T17:26:30.402Z,1417.20
2018-07-24T17:28:58.802Z,1441.78
2018-07-24T17:31:27.131Z,1396.25
2018-07-24T17:33:55.422Z,1416.60
2018-07-24T17:36:24.103Z,1313.45
2018-07-24T17:38:52.369Z,1397.95
2018-07-24T17:41:20.694Z,1351.05
2018-07-24T17:43:49.035Z,1320.35
2018-07-24T17:46:17.271Z,1296.12
2018-07-24T17:48:45.782Z,1312.18
2018-07-24T17:51:14.118Z,1321.28
2018-07-24T17:53:42.338Z,1301.47
2018-07-24T17:56:10.958Z,1304.13
2018-07-24T17:58:39.295Z,1382.13
2018-07-24T18:01:07.573Z,1492.98
2018-07-24T18:03:35.783Z,1525.63
2018-07-24T18:06:04.064Z,1541.75
2018-07-24T18:08:32.455Z,1568.40
2018-07-24T18:11:00.737Z,1525.58
2018-07-24T18:13:29.414Z,1555.35
2018-07-24T18:15:57.734Z,1640.73
2018-07-24T18:18:25.967Z,1628.03
2018-07-24T18:20:54.307Z,1612.98
2018-07-24T18:23:22.587Z,1589.83
2018-07-24T18:25:50.920Z,1523.70
2018-07-24T18:28:19.215Z,1560.48
2018-07-24T18:30:47.788Z,1549.58
2018-07-24T18:33:16.029Z,1557.13
2018-07-24T18:35:44.757Z,1582.23
2018-07-24T18:38:13.090Z,1569.05
2018-07-24T18:40:41.307Z,1524.70
2018-07-24T18:43:09.574Z,1552.95
2018-07-24T18:45:37.902Z,1438.33
2018-07-24T18:48:06.115Z,1478.80
2018-07-24T18:50:34.389Z,1440.70
2018-07-24T18:53:02.622Z,1315.30
2018-07-24T18:55:30.877Z,1331.10
2018-07-24T18:57:59.095Z,1306.63
2018-07-24T19:00:27.551Z,1251.28
2018-07-24T19:02:55.886Z,1247.10
2018-07-24T19:05:24.164Z,1242.95
2018-07-24T19:07:52.822Z,1299.05
2018-07-24T19:10:21.119Z,1339.50
2018-07-24T19:12:49.487Z,1320.42
2018-07-24T19:15:17.750Z,1307.65
2018-07-24T19:17:46.066Z,1305.90
2018-07-24T19:20:14.533Z,1297.28
2018-07-24T19:22:42.922Z,1279.03
2018-07-24T19:25:11.200Z,1257.55
2018-07-24T19:27:39.460Z,1227.20
2018-07-24T19:30:08.736Z,1204.95
2018-07-24T19:32:37.239Z,1208.40
2018-07-24T19:35:05.709Z,1166.17
2018-07-24T19:37:33.998Z,1158.88
2018-07-24T19:40:02.227Z,1167.40
2018-07-24T19:42:30.633Z,1152.75
2018-07-24T19:44:59.003Z,1149.70
2018-07-24T19:47:27.286Z,1159.58
2018-07-24T19:49:55.513Z,1140.38
2018-07-24T19:52:23.837Z,1119.60
2018-07-24T19:54:53.000Z,1131.97
2018-07-24T19:57:22.198Z,1120.15
2018-07-24T19:59:50.193Z,1102.23
2018-07-24T20:02:18.432Z,1042.15
2018-07-24T20:04:46.681Z,987.65
2018-07-24T20:07:14.907Z,996.35
2018-07-24T20:09:43.481Z,958.13
2018-07-24T20:12:11.728Z,948.67
2018-07-24T20:14:39.975Z,961.15
2018-07-24T20:17:08.206Z,951.70
2018-07-24T20:19:36.537Z,950.55
2018-07-24T20:22:05.018Z,988.20
2018-07-24T20:24:33.625Z,997.85
2018-07-24T20:27:01.981Z,981.83
2018-07-24T20:29:30.294Z,966.75
2018-07-24T20:31:58.645Z,1010.85
2018-07-24T20:34:26.910Z,962.48
2018-07-24T20:36:55.137Z,922.00
2018-07-24T20:39:23.407Z,922.52
2018-07-24T20:41:51.651Z,885.62
2018-07-24T20:44:19.898Z,886.37
2018-07-24T20:46:48.277Z,862.80
2018-07-24T20:49:16.725Z,805.27
2018-07-24T20:51:45.334Z,784.17
2018-07-24T20:54:13.568Z,738.37
2018-07-24T20:56:41.831Z,661.15
2018-07-24T20:59:10.176Z,647.65
2018-07-24T21:01:38.479Z,652.37
2018-07-24T21:04:06.802Z,589.15
2018-07-24T21:06:35.153Z,522.55
2018-07-24T21:09:03.432Z,381.55
2018-07-24T21:11:31.658Z,310.27
2018-07-24T21:13:59.908Z,255.87
2018-07-24T21:16:28.181Z,181.10
2018-07-24T21:18:56.526Z,117.00
2018-07-24T21:21:24.902Z,91.65
2018-07-24T21:23:53.142Z,88.78
2018-07-24T21:26:21.444Z,58.63
2018-07-24T21:28:49.785Z,35.98
2018-07-24T21:31:18.050Z,23.02
2018-07-24T21:33:46.413Z,19.75
2018-07-24T21:36:14.703Z,16.12
2018-07-24T21:38:42.995Z,9.78
2018-07-24T21:41:11.228Z,8.43
2018-07-24T21:43:39.474Z,7.33
2018-07-24T21:46:07.787Z,8.15
2018-07-24T21:48:35.989Z,6.42
2018-07-24T21:51:04.308Z,5.87
2018-07-24T21:53:32.586Z,5.23
2018-07-24T21:56:00.851Z,6.67
2018-07-24T21:58:29.164Z,5.60
2018-07-24T22:01:02.708Z,8.95
2018-07-24T22:03:31.354Z,6.08
2018-07-24T22:05:59.668Z,11.33
2018-07-24T22:08:27.910Z,6.90
2018-07-24T22:10:55.914Z,6.17
2018-07-24T22:13:24.247Z,4.25
2018-07-24T22:15:52.532Z,5.80
2018-07-24T22:18:20.764Z,9.00
2018-07-24T22:20:49.083Z,6.10
2018-07-24T22:23:17.283Z,8.90
2018-07-24T22:25:46.595Z,9.80
2018-07-24T22:28:14.831Z,6.03
2018-07-24T22:30:43.068Z,5.70
2018-07-24T22:33:11.282Z,4.47
2018-07-24T22:35:39.915Z,8.67
2018-07-24T22:38:08.183Z,7.17
2018-07-24T22:40:36.625Z,4.70
2018-07-24T22:43:04.949Z,4.47
2018-07-24T22:45:33.600Z,4.62
2018-07-24T22:48:02.007Z,4.63
2018-07-24T22:50:30.317Z,5.67
2018-07-24T22:52:58.476Z,9.18
2018-07-24T22:55:26.703Z,8.10
2018-07-24T22:57:55.002Z,6.78
2018-07-24T23:00:23.254Z,6.08
2018-07-24T23:02:51.730Z,7.27
2018-07-24T23:05:20.021Z,9.03
2018-07-24T23:07:48.003Z,5.33
2018-07-24T23:10:16.336Z,7.07
2018-07-24T23:12:44.558Z,9.50
2018-07-24T23:15:12.862Z,7.50
2018-07-24T23:17:41.207Z,7.03
2018-07-24T23:20:09.402Z,6.53
2018-07-24T23:22:37.642Z,4.90
2018-07-24T23:25:05.658Z,6.22
2018-07-24T23:27:33.927Z,4.70
2018-07-24T23:30:02.157Z,7.63
2018-07-24T23:32:30.375Z,5.83
2018-07-24T23:34:58.601Z,5.40
2018-07-24T23:37:26.615Z,4.90
2018-07-24T23:39:54.844Z,5.73
2018-07-24T23:42:23.113Z,4.47
2018-07-24T23:44:51.369Z,6.67
2018-07-24T23:47:19.566Z,5.57
2018-07-24T23:49:47.749Z,4.40
2018-07-24T23:52:16.086Z,5.07
2018-07-24T23:54:44.297Z,6.83
2018-07-24T23:57:12.625Z,6.93
2018-07-24T23:59:40.933Z,7.62
